Time;durP1;ratioP1;P1;durP2;ratioP2;P2;SDS_P1;SDS_P2;PMS_P1;PMS_P2;Temp;Humidity;BMP_temperature;BMP_pressure;BME280_temperature;BME280_humidity;BME280_pressure;Samples;Min_cycle;Max_cycle;Signal;HPM_P1;HPM_P2
2022/08/13 00:02:02;;;;;;;5.07;4.78;;;19.30;99.90;;;;;;6310448;28;20459;-69
2022/08/13 00:05:09;;;;;;;5.70;4.75;;;19.40;99.90;;;;;;6309415;28;20274;-70
2022/08/13 00:08:34;;;;;;;4.38;4.00;;;19.40;99.90;;;;;;6310005;28;20298;-70
2022/08/13 00:15:11;;;;;;;4.43;4.05;;;19.40;99.90;;;;;;6309850;28;20441;-70
2022/08/13 00:18:24;;;;;;;4.53;4.13;;;19.40;99.90;;;;;;6310078;28;20322;-69
2022/08/13 00:21:35;;;;;;;4.50;4.03;;;19.30;99.90;;;;;;6310684;28;20272;-69
2022/08/13 00:25:02;;;;;;;4.60;4.30;;;19.30;99.90;;;;;;6309976;28;20294;-69
2022/08/13 00:28:19;;;;;;;3.90;3.70;;;19.20;99.90;;;;;;6309948;28;20484;-69
2022/08/13 00:31:25;;;;;;;4.55;4.20;;;19.20;99.90;;;;;;6310083;28;20270;-69
2022/08/13 00:34:32;;;;;;;3.60;3.50;;;19.30;99.90;;;;;;6310134;28;20294;-69
2022/08/13 00:37:37;;;;;;;3.97;3.78;;;19.20;99.90;;;;;;6309767;28;20294;-69
2022/08/13 00:40:59;;;;;;;3.50;3.40;;;19.20;99.90;;;;;;6310591;28;20270;-70
2022/08/13 00:44:09;;;;;;;4.32;4.13;;;19.20;99.90;;;;;;6309845;28;20294;-69
2022/08/13 00:50:39;;;;;;;3.40;3.30;;;19.20;99.90;;;;;;6310504;28;20271;-69
2022/08/13 00:53:46;;;;;;;3.88;3.53;;;19.20;99.90;;;;;;6309858;28;20597;-69
2022/08/13 00:56:52;;;;;;;5.13;3.42;;;19.20;99.90;;;;;;6309690;28;20464;-69
2022/08/13 00:59:58;;;;;;;3.20;3.10;;;19.10;99.90;;;;;;6309527;28;20299;-69
2022/08/13 01:03:07;;;;;;;3.85;3.42;;;19.10;99.90;;;;;;6309616;28;20590;-69
2022/08/13 01:06:24;;;;;;;3.60;3.35;;;19.00;99.90;;;;;;6310164;28;20560;-69
2022/08/13 01:09:30;;;;;;;3.15;3.05;;;19.00;99.90;;;;;;6309543;28;20298;-69
2022/08/13 01:12:56;;;;;;;3.40;3.10;;;19.10;99.90;;;;;;6309697;28;20292;-68
2022/08/13 01:16:02;;;;;;;3.40;3.30;;;19.10;99.90;;;;;;6311409;28;20275;-68
2022/08/13 01:19:09;;;;;;;5.10;3.13;;;19.10;99.90;;;;;;6313873;28;20298;-69
2022/08/13 01:22:16;;;;;;;3.42;3.33;;;19.00;99.90;;;;;;6313564;28;20274;-69
2022/08/13 01:25:34;;;;;;;5.57;3.15;;;19.10;99.90;;;;;;6314021;28;20271;-68
2022/08/13 01:29:04;;;;;;;3.42;3.13;;;19.00;99.90;;;;;;6313538;28;20298;-69
2022/08/13 01:32:15;;;;;;;3.58;3.22;;;19.00;99.90;;;;;;6313315;28;20447;-69
2022/08/13 01:35:21;;;;;;;3.42;3.25;;;19.00;99.90;;;;;;6313689;28;20270;-69
2022/08/13 01:38:28;;;;;;;3.25;3.08;;;19.00;99.90;;;;;;6313551;28;20302;-69
2022/08/13 01:41:34;;;;;;;3.83;3.47;;;19.00;99.90;;;;;;6313448;28;20550;-69
2022/08/13 01:44:59;;;;;;;5.18;3.33;;;19.00;99.90;;;;;;6313245;28;20306;-69
2022/08/13 01:51:35;;;;;;;3.65;3.40;;;18.80;99.90;;;;;;6313125;28;20470;-69
2022/08/13 01:54:50;;;;;;;4.05;3.65;;;18.90;99.90;;;;;;6313073;28;20299;-69
2022/08/13 01:57:56;;;;;;;3.70;3.50;;;18.90;99.90;;;;;;6312906;28;20290;-69
2022/08/13 02:01:05;;;;;;;4.00;3.70;;;18.90;99.90;;;;;;6313476;28;20270;-69
2022/08/13 02:04:14;;;;;;;3.60;3.45;;;19.00;99.90;;;;;;6312996;28;20286;-68
2022/08/13 02:07:28;;;;;;;3.92;3.72;;;18.80;99.90;;;;;;6312510;28;20290;-69
2022/08/13 02:10:56;;;;;;;4.30;3.97;;;18.80;99.90;;;;;;6313187;28;20547;-69
2022/08/13 02:14:04;;;;;;;3.95;3.85;;;18.80;99.90;;;;;;6312841;28;20299;-69
2022/08/13 02:17:24;;;;;;;9.15;4.82;;;18.90;99.90;;;;;;6312377;28;20270;-69
2022/08/13 02:20:53;;;;;;;4.35;4.15;;;18.80;99.90;;;;;;6313208;28;20270;-69
2022/08/13 02:24:03;;;;;;;4.78;4.53;;;18.80;99.90;;;;;;6312378;28;20480;-69
2022/08/13 02:27:12;;;;;;;4.93;4.63;;;18.80;99.90;;;;;;6311649;28;20266;-69
2022/08/13 02:30:19;;;;;;;5.45;5.00;;;18.80;99.90;;;;;;6312362;28;20510;-69
2022/08/13 02:33:26;;;;;;;5.72;5.30;;;18.80;99.90;;;;;;6312305;28;20298;-69
2022/08/13 02:36:34;;;;;;;5.25;4.95;;;18.80;99.90;;;;;;6312901;28;20270;-69
2022/08/13 02:39:40;;;;;;;5.63;5.40;;;18.80;99.90;;;;;;6312149;28;20593;-69
2022/08/13 02:42:48;;;;;;;5.45;5.03;;;18.80;99.90;;;;;;6311553;28;20285;-70
2022/08/13 02:45:55;;;;;;;5.68;5.28;;;18.80;99.90;;;;;;6312162;28;20294;-70
2022/08/13 02:49:02;;;;;;;6.18;5.68;;;18.70;99.90;;;;;;6311328;28;20302;-70
2022/08/13 02:52:21;;;;;;;6.53;6.00;;;18.80;99.90;;;;;;6293734;28;20270;-69
2022/08/13 02:55:29;;;;;;;7.10;6.40;;;18.70;99.90;;;;;;6311829;28;20262;-68
2022/08/13 02:58:41;;;;;;;7.13;6.43;;;18.60;99.90;;;;;;6311701;28;20298;-69
2022/08/13 03:01:51;;;;;;;8.15;6.88;;;18.60;99.90;;;;;;6310560;28;20530;-68
2022/08/13 03:05:00;;;;;;;9.52;7.28;;;18.70;99.90;;;;;;6310403;28;20290;-68
2022/08/13 03:08:14;;;;;;;8.88;7.93;;;18.80;99.90;;;;;;6310901;28;20298;-69
2022/08/13 03:11:40;;;;;;;8.38;7.60;;;18.80;99.90;;;;;;6311336;28;20262;-69
2022/08/13 03:14:50;;;;;;;8.98;8.07;;;18.80;99.90;;;;;;6311068;28;20299;-69
2022/08/13 03:17:56;;;;;;;8.32;7.53;;;18.80;99.90;;;;;;6311256;28;20302;-68
2022/08/13 03:21:02;;;;;;;9.18;8.27;;;18.80;99.90;;;;;;6311504;28;20266;-69
2022/08/13 03:24:21;;;;;;;8.85;7.95;;;18.80;99.90;;;;;;6311284;28;20569;-69
2022/08/13 03:27:36;;;;;;;9.13;7.75;;;18.90;99.90;;;;;;6310955;28;20291;-69
2022/08/13 03:30:43;;;;;;;8.75;7.50;;;18.90;99.90;;;;;;6311326;28;20306;-68
2022/08/13 03:34:01;;;;;;;8.48;7.60;;;18.90;99.90;;;;;;6310826;28;20581;-68
2022/08/13 03:37:10;;;;;;;9.52;7.28;;;18.90;99.90;;;;;;6310615;28;20266;-68
2022/08/13 03:40:17;;;;;;;8.93;8.02;;;18.90;99.90;;;;;;6293070;28;20274;-68
2022/08/13 03:43:28;;;;;;;8.55;7.65;;;19.00;99.90;;;;;;6310653;28;20299;-68
2022/08/13 03:46:38;;;;;;;8.43;7.63;;;19.00;99.90;;;;;;6284340;28;20311;-68
2022/08/13 03:49:43;;;;;;;9.57;8.00;;;19.00;99.90;;;;;;6285761;28;20299;-67
2022/08/13 03:52:49;;;;;;;9.30;8.38;;;19.00;99.90;;;;;;6285490;28;20291;-68
2022/08/13 03:55:55;;;;;;;9.30;8.15;;;19.00;99.90;;;;;;6286339;28;20271;-68
2022/08/13 03:59:02;;;;;;;10.50;8.10;;;19.10;99.90;;;;;;6285238;28;20298;-69
2022/08/13 04:02:08;;;;;;;11.05;8.25;;;19.10;99.90;;;;;;6285772;28;20272;-69
2022/08/13 04:05:16;;;;;;;10.60;8.20;;;19.10;99.90;;;;;;6285935;28;20275;-68
2022/08/13 04:08:41;;;;;;;8.80;7.90;;;19.10;99.90;;;;;;6285487;28;20303;-68
2022/08/13 04:11:48;;;;;;;9.32;8.23;;;19.20;99.90;;;;;;6285446;28;20290;-69
2022/08/13 04:15:11;;;;;;;10.60;8.02;;;19.20;99.90;;;;;;6285063;28;20283;-69
2022/08/13 04:18:20;;;;;;;9.77;8.23;;;19.20;99.90;;;;;;6283386;28;20290;-69
2022/08/13 04:21:31;;;;;;;11.07;8.05;;;19.20;99.90;;;;;;6290958;28;20322;-68
2022/08/13 04:24:37;;;;;;;13.35;8.60;;;19.30;99.90;;;;;;6285260;28;20295;-69
2022/08/13 04:27:45;;;;;;;9.48;8.07;;;19.30;99.90;;;;;;6285303;28;20291;-69
2022/08/13 04:30:56;;;;;;;8.70;7.78;;;19.30;99.90;;;;;;6285593;28;20390;-68
2022/08/13 04:34:03;;;;;;;10.15;7.10;;;19.30;99.90;;;;;;6285238;28;20450;-69
2022/08/13 04:37:28;;;;;;;12.98;7.55;;;19.30;99.90;;;;;;6285249;28;20472;-68
2022/08/13 04:40:51;;;;;;;7.53;6.82;;;19.30;99.90;;;;;;6285649;28;20583;-68
2022/08/13 04:43:58;;;;;;;7.13;6.60;;;19.40;99.90;;;;;;6285060;28;20295;-68
2022/08/13 04:47:06;;;;;;;14.77;6.65;;;19.40;99.90;;;;;;6306423;28;20297;-69
2022/08/13 04:50:14;;;;;;;7.53;6.82;;;19.50;99.90;;;;;;6292919;28;20294;-69
2022/08/13 04:53:25;;;;;;;6.97;6.38;;;19.50;99.90;;;;;;6314847;28;20302;-69
2022/08/13 04:56:30;;;;;;;6.82;6.28;;;19.60;99.90;;;;;;6315086;28;20274;-69
2022/08/13 04:59:35;;;;;;;8.30;6.75;;;19.60;99.90;;;;;;6314583;28;20366;-69
2022/08/13 05:02:44;;;;;;;6.18;5.72;;;19.60;99.90;;;;;;6314640;28;20378;-69
2022/08/13 05:05:54;;;;;;;8.30;5.70;;;19.60;99.90;;;;;;6297124;28;20270;-69
2022/08/13 05:09:01;;;;;;;6.00;5.50;;;19.60;99.90;;;;;;6313894;28;20318;-69
2022/08/13 05:12:10;;;;;;;6.22;5.63;;;19.60;99.90;;;;;;6313613;28;20286;-69
2022/08/13 05:15:39;;;;;;;6.03;5.03;;;19.80;99.90;;;;;;6314187;28;20471;-69
2022/08/13 05:18:54;;;;;;;5.10;4.78;;;19.80;99.90;;;;;;6313836;28;20294;-69
2022/08/13 05:22:01;;;;;;;5.20;4.93;;;19.90;99.90;;;;;;6313901;28;20582;-69
2022/08/13 05:25:07;;;;;;;5.70;5.15;;;19.90;99.90;;;;;;6313944;28;20278;-68
2022/08/13 05:28:33;;;;;;;6.22;4.40;;;19.90;99.90;;;;;;6313849;28;20290;-69
2022/08/13 05:31:38;;;;;;;4.70;4.45;;;19.90;99.90;;;;;;6314349;28;20477;-68
2022/08/13 05:35:02;;;;;;;7.18;4.43;;;19.90;99.90;;;;;;6313123;28;20278;-68
2022/08/13 05:38:09;;;;;;;4.25;4.00;;;19.90;99.90;;;;;;6313559;28;20289;-69
2022/08/13 05:41:27;;;;;;;3.72;3.63;;;19.90;99.90;;;;;;6313859;28;20271;-68
2022/08/13 05:44:48;;;;;;;4.45;4.15;;;19.90;99.90;;;;;;6312904;28;20291;-69
2022/08/13 05:47:53;;;;;;;3.58;3.47;;;19.90;99.90;;;;;;6313010;28;20294;-69
2022/08/13 05:51:03;;;;;;;3.50;3.20;;;19.90;99.90;;;;;;6312977;28;20294;-68
2022/08/13 05:54:10;;;;;;;3.13;3.03;;;20.00;99.90;;;;;;6312581;28;20294;-68
2022/08/13 05:57:36;;;;;;;3.17;3.00;;;20.10;99.90;;;;;;6312978;28;20295;-68
2022/08/13 06:04:19;;;;;;;3.58;3.08;;;20.20;99.90;;;;;;6312146;28;20295;-69
2022/08/13 06:07:44;;;;;;;3.08;2.97;;;20.30;99.90;;;;;;6312750;28;20299;-68
2022/08/13 06:10:52;;;;;;;3.90;3.50;;;20.40;99.90;;;;;;6312781;28;20286;-69
2022/08/13 06:13:58;;;;;;;2.70;2.70;;;20.40;99.90;;;;;;6312305;28;20303;-68
2022/08/13 06:17:10;;;;;;;2.65;2.65;;;20.50;99.90;;;;;;6312301;28;20458;-68
2022/08/13 06:20:20;;;;;;;2.85;2.75;;;20.60;99.90;;;;;;6312939;28;20266;-69
2022/08/13 06:23:29;;;;;;;2.70;2.60;;;20.80;99.90;;;;;;6312628;28;20302;-68
2022/08/13 06:26:37;;;;;;;2.10;2.10;;;20.90;99.90;;;;;;6312635;28;20267;-68
2022/08/13 06:29:45;;;;;;;2.40;2.33;;;21.00;99.90;;;;;;6312213;28;20590;-69
2022/08/13 06:33:02;;;;;;;2.80;2.60;;;21.20;99.90;;;;;;6294540;28;20460;-68
2022/08/13 06:36:29;;;;;;;3.33;2.10;;;21.40;99.90;;;;;;6312576;28;20454;-69
2022/08/13 06:39:35;;;;;;;4.13;2.50;;;21.50;99.90;;;;;;6311737;28;20298;-69
2022/08/13 06:42:43;;;;;;;5.07;2.50;;;21.60;99.90;;;;;;6311575;28;20299;-68
2022/08/13 06:46:03;;;;;;;4.95;2.33;;;21.80;99.90;;;;;;6311914;28;20294;-69
2022/08/13 06:49:09;;;;;;;2.45;2.38;;;21.90;99.90;;;;;;6311470;28;20297;-69
2022/08/13 06:52:20;;;;;;;2.42;2.33;;;22.00;99.90;;;;;;6311539;28;20296;-69
2022/08/13 06:55:27;;;;;;;2.53;2.30;;;22.10;99.90;;;;;;6311820;28;20270;-69
2022/08/13 06:58:58;;;;;;;4.68;2.40;;;22.20;99.90;;;;;;6311403;28;20298;-69
2022/08/13 07:02:05;;;;;;;7.40;2.35;;;22.40;99.90;;;;;;6311068;28;20358;-69
2022/08/13 07:05:16;;;;;;;2.58;2.40;;;22.40;99.90;;;;;;6311986;28;20270;-68
2022/08/13 07:08:31;;;;;;;2.33;2.22;;;22.60;99.90;;;;;;6293349;28;20559;-68
2022/08/13 07:11:38;;;;;;;4.07;2.10;;;22.70;99.90;;;;;;6311466;28;20283;-68
2022/08/13 07:14:46;;;;;;;2.25;2.13;;;22.80;99.90;;;;;;6310750;28;20294;-68
2022/08/13 07:18:03;;;;;;;1.90;1.80;;;22.80;99.90;;;;;;6310809;28;20294;-69
2022/08/13 07:21:11;;;;;;;2.13;2.03;;;22.90;99.90;;;;;;6311101;28;20270;-68
2022/08/13 07:24:17;;;;;;;2.00;2.00;;;23.00;99.90;;;;;;6310584;28;20299;-68
2022/08/13 07:27:44;;;;;;;1.90;1.90;;;23.10;99.90;;;;;;6311080;28;20471;-69
2022/08/13 07:30:53;;;;;;;2.17;2.17;;;23.20;99.90;;;;;;6310813;28;20270;-70
2022/08/13 07:34:04;;;;;;;3.47;2.28;;;23.30;99.90;;;;;;6310521;28;20302;-69
2022/08/13 07:37:09;;;;;;;5.20;2.25;;;23.40;99.90;;;;;;6310179;28;20274;-70
2022/08/13 07:40:19;;;;;;;2.40;2.10;;;23.50;99.90;;;;;;6311102;28;20270;-68
2022/08/13 07:43:26;;;;;;;2.40;2.00;;;23.60;99.90;;;;;;6310400;28;20302;-69
2022/08/13 07:46:45;;;;;;;2.38;2.28;;;23.60;99.90;;;;;;6292959;28;20598;-70
2022/08/13 07:50:01;;;;;;;1.90;1.90;;;23.60;99.90;;;;;;6310063;28;20449;-70
2022/08/13 07:53:10;;;;;;;8.57;2.72;;;23.60;99.90;;;;;;6310527;28;20609;-69
2022/08/13 07:56:21;;;;;;;2.92;1.73;;;23.70;99.90;;;;;;6310786;28;20274;-69
2022/08/13 07:59:32;;;;;;;6.10;2.05;;;23.80;99.90;;;;;;6310144;28;20294;-69
2022/08/13 08:03:01;;;;;;;4.07;2.38;;;23.80;99.90;;;;;;6310069;28;20582;-69
2022/08/13 08:06:09;;;;;;;2.30;2.20;;;23.80;99.90;;;;;;6310736;28;20266;-69
2022/08/13 08:09:34;;;;;;;8.57;2.42;;;23.70;99.90;;;;;;6310108;28;20302;-69
2022/08/13 08:12:45;;;;;;;2.47;2.28;;;23.80;99.90;;;;;;6309949;28;20298;-69
2022/08/13 08:15:57;;;;;;;3.95;2.03;;;23.80;99.90;;;;;;6292761;28;20282;-69
2022/08/13 08:19:10;;;;;;;2.10;2.10;;;23.80;99.90;;;;;;6309951;28;20307;-69
2022/08/13 08:22:36;;;;;;;2.80;2.00;;;23.90;99.90;;;;;;6310150;28;20593;-69
2022/08/13 08:25:41;;;;;;;2.08;2.00;;;24.00;99.90;;;;;;6311507;28;20291;-69
2022/08/13 08:29:10;;;;;;;3.72;2.40;;;23.90;99.90;;;;;;6314984;28;20455;-69
2022/08/13 08:32:25;;;;;;;5.18;2.40;;;23.90;99.90;;;;;;6314908;28;20478;-70
2022/08/13 08:35:43;;;;;;;1.95;1.90;;;24.00;99.90;;;;;;6315542;28;20266;-69
2022/08/13 08:42:40;;;;;;;2.20;2.10;;;24.00;99.70;;;;;;6314969;28;20290;-69
2022/08/13 08:46:06;;;;;;;2.25;2.15;;;24.10;99.90;;;;;;6314889;28;20484;-69
2022/08/13 08:49:21;;;;;;;2.20;2.00;;;24.10;99.90;;;;;;6314701;28;20298;-69
2022/08/13 08:56:34;;;;;;;2.38;2.25;;;24.20;99.70;;;;;;6314115;28;20271;-69
2022/08/13 08:59:41;;;;;;;2.38;2.20;;;24.20;99.40;;;;;;6314387;28;20329;-69
2022/08/13 09:02:57;;;;;;;2.10;2.10;;;24.20;99.60;;;;;;6314034;28;20290;-70
2022/08/13 09:06:02;;;;;;;4.60;2.85;;;24.20;99.40;;;;;;6313869;28;20270;-68
2022/08/13 09:09:26;;;;;;;3.47;2.10;;;24.30;99.10;;;;;;6314036;28;20306;-70
2022/08/13 09:12:33;;;;;;;2.70;2.03;;;24.30;99.00;;;;;;6289105;28;20434;-69
2022/08/13 09:15:40;;;;;;;8.18;2.50;;;24.30;99.60;;;;;;6289663;28;20276;-69
2022/08/13 09:18:50;;;;;;;2.33;2.15;;;24.30;98.50;;;;;;6289049;28;20303;-69
2022/08/13 09:21:58;;;;;;;2.25;2.15;;;24.30;98.20;;;;;;6289492;28;20271;-69
2022/08/13 09:25:05;;;;;;;3.03;1.98;;;24.30;98.30;;;;;;6287901;28;20283;-68
2022/08/13 09:28:23;;;;;;;9.10;2.30;;;24.40;98.30;;;;;;6288309;28;20295;-69
2022/08/13 09:31:44;;;;;;;2.40;2.30;;;24.40;98.20;;;;;;6289321;28;20271;-69
2022/08/13 09:34:58;;;;;;;5.35;2.42;;;24.40;98.10;;;;;;6288649;28;20506;-69
2022/08/13 09:38:06;;;;;;;6.78;2.60;;;24.50;98.10;;;;;;6288539;28;20286;-69
2022/08/13 09:41:25;;;;;;;3.75;2.40;;;24.50;97.20;;;;;;6289156;28;20267;-69
2022/08/13 09:44:30;;;;;;;3.05;2.30;;;24.60;97.40;;;;;;6288474;28;20303;-70
2022/08/13 09:47:41;;;;;;;5.45;2.35;;;24.60;98.10;;;;;;6287797;28;20576;-69
2022/08/13 09:51:09;;;;;;;2.45;2.30;;;24.50;97.70;;;;;;6288831;28;20275;-70
2022/08/13 09:54:34;;;;;;;2.58;2.30;;;24.60;97.60;;;;;;6287659;28;20474;-69
2022/08/13 09:57:52;;;;;;;2.20;2.10;;;24.60;97.80;;;;;;6288382;28;20295;-69
2022/08/13 10:01:00;;;;;;;3.35;2.45;;;24.60;98.00;;;;;;6288449;28;20276;-68
2022/08/13 10:04:05;;;;;;;2.20;2.10;;;24.70;97.90;;;;;;6288033;28;20300;-69
2022/08/13 10:07:13;;;;;;;2.10;2.10;;;24.70;97.10;;;;;;6287500;28;20291;-69
2022/08/13 10:10:24;;;;;;;3.35;2.15;;;24.70;96.10;;;;;;6295774;28;20263;-69
2022/08/13 10:13:37;;;;;;;4.95;2.10;;;24.80;95.50;;;;;;6312663;28;20299;-70
2022/08/13 10:16:56;;;;;;;2.40;2.10;;;24.80;95.50;;;;;;6295399;28;20267;-69
2022/08/13 10:20:01;;;;;;;2.42;2.25;;;24.80;95.10;;;;;;6312198;28;20274;-69
2022/08/13 10:23:11;;;;;;;2.25;2.25;;;24.80;95.10;;;;;;6312447;28;20294;-68
2022/08/13 10:26:20;;;;;;;2.03;2.03;;;24.90;94.70;;;;;;6312828;28;20278;-69
2022/08/13 10:29:35;;;;;;;8.48;2.45;;;24.90;94.80;;;;;;6312171;28;20324;-68
2022/08/13 10:33:00;;;;;;;2.33;2.22;;;25.00;94.50;;;;;;6311914;28;20302;-69
2022/08/13 10:36:09;;;;;;;2.47;2.35;;;25.10;94.60;;;;;;6312575;28;20582;-69
2022/08/13 10:39:15;;;;;;;2.50;2.30;;;25.10;94.60;;;;;;6312196;28;20298;-69
2022/08/13 10:42:21;;;;;;;3.20;1.90;;;25.10;94.60;;;;;;6311603;28;20286;-68
2022/08/13 10:45:29;;;;;;;2.25;2.10;;;25.10;93.80;;;;;;6312123;28;20298;-68
2022/08/13 10:48:37;;;;;;;2.42;2.10;;;25.20;94.50;;;;;;6311279;28;20294;-69
2022/08/13 10:51:42;;;;;;;1.92;1.90;;;25.30;94.80;;;;;;6311959;28;20266;-69
2022/08/13 10:55:11;;;;;;;3.83;2.20;;;25.30;93.70;;;;;;6311392;28;20300;-69
2022/08/13 10:58:18;;;;;;;3.40;2.05;;;25.30;92.90;;;;;;6293824;28;20294;-70
2022/08/13 11:01:45;;;;;;;2.05;2.00;;;25.40;92.80;;;;;;6312010;28;20271;-68
2022/08/13 11:04:50;;;;;;;3.35;2.28;;;25.40;93.10;;;;;;6311260;28;20293;-68
2022/08/13 11:07:56;;;;;;;3.10;2.03;;;25.50;92.80;;;;;;6311483;28;20291;-68
2022/08/13 11:11:03;;;;;;;2.28;2.10;;;25.50;92.30;;;;;;6311172;28;20266;-69
2022/08/13 11:14:29;;;;;;;2.75;2.13;;;25.60;92.30;;;;;;6310861;28;20299;-69
2022/08/13 11:17:50;;;;;;;2.45;2.30;;;25.70;91.90;;;;;;6311157;28;20286;-70
2022/08/13 11:21:07;;;;;;;1.85;1.85;;;25.70;92.00;;;;;;6311196;28;20274;-70
2022/08/13 11:24:32;;;;;;;4.75;1.83;;;25.70;92.10;;;;;;6311078;28;20294;-69
2022/08/13 11:27:41;;;;;;;5.07;2.20;;;25.70;92.60;;;;;;6310971;28;20303;-70
2022/08/13 11:30:57;;;;;;;2.95;2.08;;;25.80;92.30;;;;;;6311121;28;20287;-71
2022/08/13 11:34:04;;;;;;;2.10;2.00;;;25.90;92.10;;;;;;6310444;28;20605;-69
2022/08/13 11:37:11;;;;;;;2.55;2.22;;;25.90;92.10;;;;;;6310408;28;20298;-68
2022/08/13 11:40:16;;;;;;;2.15;2.10;;;25.90;92.00;;;;;;6311329;28;20562;-69
2022/08/13 11:43:37;;;;;;;4.50;2.30;;;25.90;92.20;;;;;;6310231;28;20294;-69
2022/08/13 11:47:02;;;;;;;3.55;1.83;;;26.00;91.80;;;;;;6310685;28;20485;-69
2022/08/13 11:50:24;;;;;;;1.95;1.83;;;26.10;91.10;;;;;;6310960;28;20578;-69
2022/08/13 11:53:40;;;;;;;1.90;1.80;;;26.20;91.10;;;;;;6310371;28;20311;-69
2022/08/13 11:57:07;;;;;;;2.53;2.35;;;26.20;90.50;;;;;;6310283;28;20290;-68
2022/08/13 12:00:17;;;;;;;2.15;2.05;;;26.30;90.70;;;;;;6309730;28;20270;-70
2022/08/13 12:03:39;;;;;;;1.95;1.95;;;26.30;91.20;;;;;;6310172;28;20290;-69
2022/08/13 12:07:06;;;;;;;5.97;1.90;;;26.30;90.20;;;;;;6310053;28;20274;-71
2022/08/13 12:10:19;;;;;;;2.13;2.10;;;26.30;90.70;;;;;;6310846;28;20534;-68
2022/08/13 12:13:44;;;;;;;1.90;1.90;;;26.40;91.10;;;;;;6310143;28;20294;-69
2022/08/13 12:16:57;;;;;;;2.30;2.20;;;26.40;90.40;;;;;;6310535;28;20290;-69
2022/08/13 12:20:08;;;;;;;2.88;2.10;;;26.40;90.10;;;;;;6309743;28;20295;-68
2022/08/13 12:23:25;;;;;;;2.58;1.95;;;26.50;90.00;;;;;;6309656;28;20298;-68
2022/08/13 12:26:35;;;;;;;3.63;1.92;;;26.50;90.30;;;;;;6310485;28;20275;-69
2022/08/13 12:29:42;;;;;;;19.75;3.13;;;26.60;90.60;;;;;;6309876;28;20322;-68
2022/08/13 12:32:51;;;;;;;6.30;2.38;;;26.60;90.80;;;;;;6309826;28;20294;-68
2022/08/13 12:36:00;;;;;;;3.92;2.20;;;26.70;90.20;;;;;;6310087;28;20606;-68
2022/08/13 12:39:08;;;;;;;3.45;2.10;;;26.70;90.50;;;;;;6310061;28;20334;-69
2022/08/13 12:42:21;;;;;;;1.98;1.88;;;26.70;90.10;;;;;;6309235;28;20289;-69
2022/08/13 12:45:32;;;;;;;2.17;2.08;;;26.70;90.40;;;;;;6310357;28;20299;-68
2022/08/13 12:48:58;;;;;;;1.80;1.80;;;26.80;90.00;;;;;;6309509;28;20605;-68
2022/08/13 12:52:03;;;;;;;3.88;2.20;;;26.80;90.30;;;;;;6309596;28;20270;-69
2022/08/13 12:55:10;;;;;;;2.15;2.10;;;26.80;90.00;;;;;;6310090;28;20270;-69
2022/08/13 12:58:28;;;;;;;2.15;2.10;;;26.90;89.10;;;;;;6309290;28;20507;-69
2022/08/13 13:01:36;;;;;;;1.83;1.73;;;26.90;90.00;;;;;;6310023;28;20290;-69
2022/08/13 13:04:43;;;;;;;2.20;2.10;;;27.00;89.20;;;;;;6309106;28;20294;-69
2022/08/13 13:08:21;;;;;;;2.00;1.90;;;27.00;90.00;;;;;;6309504;28;20295;-69
2022/08/13 13:11:41;;;;;;;2.20;2.10;;;27.10;89.40;;;;;;6310729;28;20458;-69
2022/08/13 13:14:56;;;;;;;1.85;1.85;;;27.10;90.00;;;;;;6313893;28;20299;-69
2022/08/13 13:18:26;;;;;;;2.00;1.88;;;27.20;85.40;;;;;;6313504;28;20306;-69
2022/08/13 13:21:51;;;;;;;2.22;2.13;;;27.50;86.30;;;;;;6314438;28;20270;-70
2022/08/13 13:24:56;;;;;;;2.67;2.00;;;27.80;83.90;;;;;;6314106;28;20299;-69
2022/08/13 13:28:14;;;;;;;5.15;2.00;;;27.70;83.30;;;;;;6313890;28;20294;-69
2022/08/13 13:31:19;;;;;;;2.42;2.00;;;27.70;82.90;;;;;;6314436;28;20270;-69
2022/08/13 13:34:31;;;;;;;2.13;2.03;;;27.60;81.00;;;;;;6313412;28;20294;-69
2022/08/13 13:37:43;;;;;;;2.00;1.90;;;27.60;81.20;;;;;;6313223;28;20339;-69
2022/08/13 13:41:09;;;;;;;1.70;1.60;;;27.60;80.80;;;;;;6313725;28;20270;-69
2022/08/13 13:44:19;;;;;;;3.40;1.60;;;27.60;80.90;;;;;;6313314;28;20295;-68
2022/08/13 13:47:43;;;;;;;2.63;1.60;;;27.50;79.80;;;;;;6288399;28;20291;-68
2022/08/13 13:50:51;;;;;;;3.10;1.95;;;27.60;79.60;;;;;;6288735;28;20271;-69
2022/08/13 13:53:56;;;;;;;3.22;1.50;;;27.50;78.40;;;;;;6288007;28;20295;-69
2022/08/13 13:57:21;;;;;;;2.33;1.98;;;27.60;79.70;;;;;;6287762;28;20291;-69
2022/08/13 14:00:32;;;;;;;5.15;1.83;;;27.60;80.70;;;;;;6288589;28;20271;-68
2022/08/13 14:03:39;;;;;;;2.10;1.90;;;27.60;79.40;;;;;;6287948;28;20299;-69
2022/08/13 14:06:48;;;;;;;4.82;1.75;;;27.60;81.00;;;;;;6288449;28;20274;-69
2022/08/13 14:09:54;;;;;;;2.00;1.90;;;27.60;83.90;;;;;;6284533;28;20287;-69
2022/08/13 14:13:06;;;;;;;2.88;2.15;;;27.50;80.30;;;;;;6263098;28;20295;-69
2022/08/13 14:16:29;;;;;;;2.10;1.90;;;27.50;79.00;;;;;;6263653;28;20531;-69
2022/08/13 14:19:41;;;;;;;1.65;1.65;;;27.50;77.80;;;;;;6262807;28;20299;-70
2022/08/13 14:23:01;;;;;;;1.75;1.75;;;27.50;77.50;;;;;;6261650;28;20292;-67
2022/08/13 14:26:11;;;;;;;1.70;1.70;;;27.50;77.80;;;;;;6245888;28;20276;-69
2022/08/13 14:29:23;;;;;;;1.88;1.60;;;27.50;77.90;;;;;;6262751;28;20304;-68
2022/08/13 14:32:31;;;;;;;2.33;1.70;;;27.40;76.00;;;;;;6262787;28;20296;-68
2022/08/13 14:35:42;;;;;;;1.67;1.67;;;27.40;75.50;;;;;;6263092;28;20276;-69
2022/08/13 14:38:54;;;;;;;1.60;1.60;;;27.40;75.50;;;;;;6262103;28;20308;-69
2022/08/13 14:41:59;;;;;;;1.70;1.70;;;27.40;76.10;;;;;;6262069;28;20575;-68
2022/08/13 14:48:45;;;;;;;1.50;1.50;;;27.30;75.90;;;;;;6286372;28;20303;-69
2022/08/13 14:52:01;;;;;;;1.75;1.70;;;27.30;76.60;;;;;;6268699;28;20271;-69
2022/08/13 14:55:13;;;;;;;1.98;1.70;;;27.30;75.40;;;;;;6287073;28;20271;-69
2022/08/13 14:58:19;;;;;;;1.50;1.50;;;27.30;74.90;;;;;;6286636;28;20299;-69
2022/08/13 15:01:41;;;;;;;1.70;1.70;;;27.30;72.70;;;;;;6286832;28;20280;-69
2022/08/13 15:04:51;;;;;;;1.77;1.65;;;27.20;72.70;;;;;;6286384;28;20615;-69
2022/08/13 15:08:04;;;;;;;6.53;1.77;;;27.10;74.20;;;;;;6285744;28;20300;-69
2022/08/13 15:11:31;;;;;;;1.90;1.80;;;27.20;72.50;;;;;;6302919;28;20262;-68
2022/08/13 15:14:37;;;;;;;1.90;1.77;;;27.10;74.00;;;;;;6310949;28;20294;-68
2022/08/13 15:17:45;;;;;;;1.67;1.63;;;27.10;74.80;;;;;;6310473;28;20298;-68
2022/08/13 15:20:59;;;;;;;1.60;1.60;;;27.10;73.90;;;;;;6311059;28;20266;-68
2022/08/13 15:24:04;;;;;;;3.53;1.60;;;27.20;71.70;;;;;;6310641;28;20361;-70
2022/08/13 15:27:13;;;;;;;1.58;1.58;;;27.10;72.30;;;;;;6310670;28;20261;-69
2022/08/13 15:30:27;;;;;;;1.55;1.55;;;27.00;72.70;;;;;;6310995;28;20275;-69
2022/08/13 15:33:34;;;;;;;1.80;1.80;;;27.00;73.60;;;;;;6310198;28;20294;-67
2022/08/13 15:36:43;;;;;;;1.70;1.60;;;27.00;73.70;;;;;;6310684;28;20280;-68
2022/08/13 15:40:06;;;;;;;1.75;1.75;;;26.90;73.40;;;;;;6309785;28;20298;-68
2022/08/13 15:43:13;;;;;;;1.40;1.40;;;26.80;71.80;;;;;;6310183;28;20298;-67
2022/08/13 15:46:39;;;;;;;1.52;1.50;;;26.80;72.60;;;;;;6310502;28;20318;-68
2022/08/13 15:49:46;;;;;;;2.13;1.65;;;26.80;73.70;;;;;;6310192;28;20464;-68
2022/08/13 15:52:53;;;;;;;1.80;1.70;;;26.70;72.50;;;;;;6310355;28;20609;-68
2022/08/13 15:56:02;;;;;;;1.70;1.60;;;26.80;73.30;;;;;;6310291;28;20454;-69
2022/08/13 15:59:08;;;;;;;1.60;1.50;;;26.70;71.80;;;;;;6309806;28;20298;-68
2022/08/13 16:02:21;;;;;;;1.63;1.52;;;26.60;76.10;;;;;;6310036;28;20561;-67
2022/08/13 16:05:48;;;;;;;1.50;1.50;;;26.60;74.10;;;;;;6310657;28;20274;-68
2022/08/13 16:08:55;;;;;;;1.98;1.83;;;26.60;73.30;;;;;;6309617;28;20303;-68
2022/08/13 16:12:03;;;;;;;1.73;1.60;;;26.50;75.90;;;;;;6309830;28;20338;-68
2022/08/13 16:15:12;;;;;;;2.60;1.70;;;26.40;73.90;;;;;;6310067;28;20656;-70
2022/08/13 16:18:32;;;;;;;2.33;1.50;;;26.40;74.10;;;;;;6309619;28;20302;-68
2022/08/13 16:21:43;;;;;;;1.92;1.60;;;26.30;74.50;;;;;;6310322;28;20266;-68
2022/08/13 16:24:51;;;;;;;1.70;1.60;;;26.20;74.90;;;;;;6309640;28;20294;-69
2022/08/13 16:27:59;;;;;;;1.70;1.70;;;26.20;77.40;;;;;;6309417;28;20290;-70
2022/08/13 16:31:05;;;;;;;2.15;1.60;;;26.10;77.40;;;;;;6310128;28;20274;-69
2022/08/13 16:34:15;;;;;;;2.67;1.98;;;26.20;72.90;;;;;;6309405;28;20294;-69
2022/08/13 16:37:24;;;;;;;5.07;2.30;;;26.20;71.80;;;;;;6309765;28;20290;-68
2022/08/13 16:40:54;;;;;;;1.70;1.70;;;26.20;76.30;;;;;;6310191;28;20293;-70
2022/08/13 16:44:00;;;;;;;1.60;1.50;;;26.10;72.20;;;;;;6309440;28;20303;-69
2022/08/13 16:47:10;;;;;;;2.33;1.60;;;26.10;71.90;;;;;;6310676;28;20585;-71
2022/08/13 16:50:17;;;;;;;1.67;1.67;;;26.00;72.30;;;;;;6314966;28;20569;-68
2022/08/13 16:53:23;;;;;;;2.05;1.90;;;26.00;73.00;;;;;;6313992;28;20294;-69
2022/08/13 16:56:50;;;;;;;1.88;1.77;;;26.00;74.60;;;;;;6314470;28;20271;-70
2022/08/13 16:59:58;;;;;;;1.98;1.98;;;25.90;75.70;;;;;;6314122;28;20570;-70
2022/08/13 17:10:00;;;;;;;2.65;2.25;;;25.60;76.80;;;;;;6313635;28;20562;-69
2022/08/13 17:13:08;;;;;;;2.10;2.10;;;25.60;77.90;;;;;;6314124;28;20290;-69